sensor_id;sensor_type;location;lat;lon;timestamp;P1;durP1;ratioP1;P2;durP2;ratioP2
28068;SDS011;15382;47.578;8.086;2023-04-09T00:04:31;28.33;;;14.80;;
28068;SDS011;15382;47.578;8.086;2023-04-09T00:14:32;27.85;;;15.77;;
28068;SDS011;15382;47.578;8.086;2023-04-09T00:24:33;30.88;;;17.10;;
28068;SDS011;15382;47.578;8.086;2023-04-09T00:34:34;33.05;;;16.38;;
28068;SDS011;15382;47.578;8.086;2023-04-09T00:44:35;28.20;;;14.82;;
28068;SDS011;15382;47.578;8.086;2023-04-09T00:54:36;27.60;;;15.15;;
28068;SDS011;15382;47.578;8.086;2023-04-09T01:04:37;32.42;;;16.17;;
28068;SDS011;15382;47.578;8.086;2023-04-09T01:14:58;32.97;;;16.00;;
28068;SDS011;15382;47.578;8.086;2023-04-09T01:35:29;32.42;;;17.55;;
28068;SDS011;15382;47.578;8.086;2023-04-09T01:45:31;33.60;;;16.08;;
28068;SDS011;15382;47.578;8.086;2023-04-09T01:55:33;33.47;;;17.30;;
28068;SDS011;15382;47.578;8.086;2023-04-09T02:15:36;31.63;;;15.85;;
28068;SDS011;15382;47.578;8.086;2023-04-09T02:25:39;32.25;;;17.17;;
28068;SDS011;15382;47.578;8.086;2023-04-09T02:45:41;30.93;;;18.03;;
28068;SDS011;15382;47.578;8.086;2023-04-09T03:05:42;32.37;;;16.80;;
28068;SDS011;15382;47.578;8.086;2023-04-09T03:15:43;31.60;;;17.13;;
28068;SDS011;15382;47.578;8.086;2023-04-09T03:25:44;34.33;;;16.83;;
28068;SDS011;15382;47.578;8.086;2023-04-09T03:35:48;34.25;;;17.65;;
28068;SDS011;15382;47.578;8.086;2023-04-09T03:45:53;37.70;;;18.13;;
28068;SDS011;15382;47.578;8.086;2023-04-09T03:55:59;38.15;;;17.90;;
28068;SDS011;15382;47.578;8.086;2023-04-09T04:06:02;22.15;;;11.65;;
28068;SDS011;15382;47.578;8.086;2023-04-09T04:16:13;24.43;;;11.40;;
28068;SDS011;15382;47.578;8.086;2023-04-09T04:26:15;22.02;;;10.60;;
28068;SDS011;15382;47.578;8.086;2023-04-09T04:36:15;18.88;;;9.63;;
28068;SDS011;15382;47.578;8.086;2023-04-09T04:46:21;23.17;;;11.48;;
28068;SDS011;15382;47.578;8.086;2023-04-09T04:56:22;23.92;;;11.48;;
28068;SDS011;15382;47.578;8.086;2023-04-09T05:06:33;23.55;;;11.48;;
28068;SDS011;15382;47.578;8.086;2023-04-09T05:16:38;24.90;;;11.13;;
28068;SDS011;15382;47.578;8.086;2023-04-09T05:26:40;24.75;;;11.45;;
28068;SDS011;15382;47.578;8.086;2023-04-09T05:36:41;27.85;;;13.05;;
28068;SDS011;15382;47.578;8.086;2023-04-09T05:46:42;27.08;;;13.38;;
28068;SDS011;15382;47.578;8.086;2023-04-09T05:56:45;24.48;;;13.02;;
28068;SDS011;15382;47.578;8.086;2023-04-09T06:06:48;24.92;;;12.00;;
28068;SDS011;15382;47.578;8.086;2023-04-09T06:16:49;23.90;;;12.10;;
28068;SDS011;15382;47.578;8.086;2023-04-09T06:36:51;27.13;;;13.38;;
28068;SDS011;15382;47.578;8.086;2023-04-09T06:56:52;23.00;;;11.97;;
28068;SDS011;15382;47.578;8.086;2023-04-09T07:06:53;25.90;;;12.23;;
28068;SDS011;15382;47.578;8.086;2023-04-09T07:16:55;28.75;;;14.38;;
28068;SDS011;15382;47.578;8.086;2023-04-09T07:26:56;27.07;;;14.37;;
28068;SDS011;15382;47.578;8.086;2023-04-09T07:36:57;24.50;;;12.97;;
28068;SDS011;15382;47.578;8.086;2023-04-09T07:46:58;22.07;;;11.80;;
28068;SDS011;15382;47.578;8.086;2023-04-09T07:56:59;21.47;;;10.73;;
28068;SDS011;15382;47.578;8.086;2023-04-09T08:07:00;22.45;;;10.77;;
28068;SDS011;15382;47.578;8.086;2023-04-09T08:17:01;23.63;;;12.23;;
28068;SDS011;15382;47.578;8.086;2023-04-09T08:27:03;18.55;;;10.98;;
28068;SDS011;15382;47.578;8.086;2023-04-09T08:37:04;17.40;;;9.77;;
28068;SDS011;15382;47.578;8.086;2023-04-09T08:47:09;16.02;;;9.32;;
28068;SDS011;15382;47.578;8.086;2023-04-09T08:57:10;12.82;;;8.55;;
28068;SDS011;15382;47.578;8.086;2023-04-09T09:07:11;12.30;;;7.43;;
28068;SDS011;15382;47.578;8.086;2023-04-09T09:17:12;13.07;;;7.87;;
28068;SDS011;15382;47.578;8.086;2023-04-09T09:37:35;10.73;;;6.82;;
28068;SDS011;15382;47.578;8.086;2023-04-09T09:47:36;9.93;;;5.47;;
28068;SDS011;15382;47.578;8.086;2023-04-09T09:57:37;9.23;;;6.13;;
28068;SDS011;15382;47.578;8.086;2023-04-09T10:07:40;32.78;;;17.08;;
28068;SDS011;15382;47.578;8.086;2023-04-09T10:17:42;9.05;;;5.28;;
28068;SDS011;15382;47.578;8.086;2023-04-09T10:27:43;6.33;;;4.57;;
28068;SDS011;15382;47.578;8.086;2023-04-09T10:37:47;4.13;;;2.50;;
28068;SDS011;15382;47.578;8.086;2023-04-09T10:47:49;6.32;;;4.07;;
28068;SDS011;15382;47.578;8.086;2023-04-09T10:57:53;6.40;;;4.05;;
28068;SDS011;15382;47.578;8.086;2023-04-09T11:07:59;5.47;;;3.83;;
28068;SDS011;15382;47.578;8.086;2023-04-09T11:18:13;5.53;;;3.72;;
28068;SDS011;15382;47.578;8.086;2023-04-09T11:28:18;5.40;;;3.70;;
28068;SDS011;15382;47.578;8.086;2023-04-09T11:38:20;5.55;;;3.75;;
28068;SDS011;15382;47.578;8.086;2023-04-09T11:48:21;5.50;;;3.60;;
28068;SDS011;15382;47.578;8.086;2023-04-09T11:58:26;6.18;;;3.90;;
28068;SDS011;15382;47.578;8.086;2023-04-09T12:08:27;6.32;;;3.88;;
28068;SDS011;15382;47.578;8.086;2023-04-09T12:18:28;5.37;;;3.57;;
28068;SDS011;15382;47.578;8.086;2023-04-09T12:28:29;7.17;;;4.10;;
28068;SDS011;15382;47.578;8.086;2023-04-09T12:38:30;5.50;;;3.77;;
28068;SDS011;15382;47.578;8.086;2023-04-09T12:48:31;6.53;;;3.83;;
28068;SDS011;15382;47.578;8.086;2023-04-09T12:58:32;6.37;;;4.20;;
28068;SDS011;15382;47.578;8.086;2023-04-09T13:08:32;7.10;;;4.17;;
28068;SDS011;15382;47.578;8.086;2023-04-09T13:18:33;6.43;;;4.47;;
28068;SDS011;15382;47.578;8.086;2023-04-09T13:28:34;6.60;;;4.73;;
28068;SDS011;15382;47.578;8.086;2023-04-09T13:38:36;7.38;;;4.95;;
28068;SDS011;15382;47.578;8.086;2023-04-09T13:48:37;7.13;;;4.97;;
28068;SDS011;15382;47.578;8.086;2023-04-09T13:58:38;6.83;;;4.90;;
28068;SDS011;15382;47.578;8.086;2023-04-09T14:08:39;7.53;;;4.63;;
28068;SDS011;15382;47.578;8.086;2023-04-09T14:18:40;9.27;;;5.03;;
28068;SDS011;15382;47.578;8.086;2023-04-09T14:28:41;11.17;;;5.97;;
28068;SDS011;15382;47.578;8.086;2023-04-09T14:48:43;7.07;;;4.33;;
28068;SDS011;15382;47.578;8.086;2023-04-09T14:58:43;5.53;;;3.40;;
28068;SDS011;15382;47.578;8.086;2023-04-09T15:08:44;4.10;;;2.97;;
28068;SDS011;15382;47.578;8.086;2023-04-09T15:18:45;5.47;;;3.40;;
28068;SDS011;15382;47.578;8.086;2023-04-09T15:28:48;7.25;;;3.47;;
28068;SDS011;15382;47.578;8.086;2023-04-09T15:38:51;5.13;;;3.10;;
28068;SDS011;15382;47.578;8.086;2023-04-09T15:48:53;68.85;;;4.68;;
28068;SDS011;15382;47.578;8.086;2023-04-09T15:58:54;6.37;;;3.50;;
28068;SDS011;15382;47.578;8.086;2023-04-09T16:08:54;6.83;;;3.70;;
28068;SDS011;15382;47.578;8.086;2023-04-09T16:28:57;6.05;;;3.53;;
28068;SDS011;15382;47.578;8.086;2023-04-09T16:39:02;6.45;;;3.38;;
28068;SDS011;15382;47.578;8.086;2023-04-09T16:49:03;10.70;;;7.55;;
28068;SDS011;15382;47.578;8.086;2023-04-09T16:59:04;3.93;;;2.83;;
28068;SDS011;15382;47.578;8.086;2023-04-09T17:09:05;7.40;;;4.87;;
28068;SDS011;15382;47.578;8.086;2023-04-09T17:29:08;5.43;;;2.92;;
28068;SDS011;15382;47.578;8.086;2023-04-09T17:39:08;6.40;;;3.57;;
28068;SDS011;15382;47.578;8.086;2023-04-09T17:49:09;4.80;;;2.70;;
28068;SDS011;15382;47.578;8.086;2023-04-09T17:59:10;4.70;;;2.65;;
28068;SDS011;15382;47.578;8.086;2023-04-09T18:09:12;4.07;;;1.98;;
28068;SDS011;15382;47.578;8.086;2023-04-09T18:19:13;7.43;;;3.23;;
28068;SDS011;15382;47.578;8.086;2023-04-09T18:29:14;5.68;;;3.40;;
28068;SDS011;15382;47.578;8.086;2023-04-09T18:39:15;4.43;;;2.90;;
28068;SDS011;15382;47.578;8.086;2023-04-09T18:49:16;5.10;;;2.70;;
28068;SDS011;15382;47.578;8.086;2023-04-09T18:59:17;4.47;;;3.03;;
28068;SDS011;15382;47.578;8.086;2023-04-09T19:09:18;4.57;;;2.53;;
28068;SDS011;15382;47.578;8.086;2023-04-09T19:19:19;4.17;;;2.47;;
28068;SDS011;15382;47.578;8.086;2023-04-09T19:29:19;4.40;;;2.73;;
28068;SDS011;15382;47.578;8.086;2023-04-09T19:39:20;4.23;;;2.37;;
28068;SDS011;15382;47.578;8.086;2023-04-09T19:49:21;3.20;;;2.27;;
28068;SDS011;15382;47.578;8.086;2023-04-09T19:59:22;4.23;;;2.60;;
28068;SDS011;15382;47.578;8.086;2023-04-09T20:09:23;4.33;;;2.57;;
28068;SDS011;15382;47.578;8.086;2023-04-09T20:19:25;5.30;;;2.80;;
28068;SDS011;15382;47.578;8.086;2023-04-09T20:29:26;4.88;;;2.90;;
28068;SDS011;15382;47.578;8.086;2023-04-09T20:39:27;4.67;;;2.73;;
28068;SDS011;15382;47.578;8.086;2023-04-09T20:49:29;4.97;;;3.13;;
28068;SDS011;15382;47.578;8.086;2023-04-09T20:59:30;6.43;;;2.90;;
28068;SDS011;15382;47.578;8.086;2023-04-09T21:09:31;4.88;;;2.97;;
28068;SDS011;15382;47.578;8.086;2023-04-09T21:19:33;6.22;;;3.28;;
28068;SDS011;15382;47.578;8.086;2023-04-09T21:29:33;5.53;;;3.00;;
28068;SDS011;15382;47.578;8.086;2023-04-09T21:39:34;8.55;;;3.75;;
28068;SDS011;15382;47.578;8.086;2023-04-09T21:49:35;5.13;;;3.30;;
28068;SDS011;15382;47.578;8.086;2023-04-09T21:59:39;6.78;;;4.07;;
28068;SDS011;15382;47.578;8.086;2023-04-09T22:09:40;7.30;;;3.67;;
28068;SDS011;15382;47.578;8.086;2023-04-09T22:19:40;7.90;;;4.07;;
28068;SDS011;15382;47.578;8.086;2023-04-09T22:29:41;8.95;;;4.25;;
28068;SDS011;15382;47.578;8.086;2023-04-09T22:39:42;10.27;;;4.50;;
28068;SDS011;15382;47.578;8.086;2023-04-09T22:49:43;9.98;;;4.82;;
28068;SDS011;15382;47.578;8.086;2023-04-09T22:59:44;7.57;;;4.28;;
28068;SDS011;15382;47.578;8.086;2023-04-09T23:19:45;7.78;;;4.18;;
28068;SDS011;15382;47.578;8.086;2023-04-09T23:29:46;8.25;;;4.68;;
28068;SDS011;15382;47.578;8.086;2023-04-09T23:49:48;9.73;;;5.30;;
